Ghanzi, Botswana
Current Conditions -  °F | °C
As of 10:00 AM on Friday 24 Oct 2014 (Local Time) from FBMN Reporting Station
Clear Clear  
Wind Chill: 90°   Ceiling: Unl
Heat Index: 90°   Visibility: 6mi
Dew Point: 37°   Wind: 9mph
Humidity: 16%   Direction: 330°NNW
Pressure: 29.97"   Gusts: NA
Location:  21.7°S, 21.64°E
Report Text: FBMN 240800Z 33008KT CAVOK 32/03 Q1015
Loading
Personal Weather Stations






























Interactive Weather Map New forecast layout! Learn more

10-Day Weather Forecast

Advertisements
Track Severe Weather on mobile